Aktuell METAR/TAF ESNU/UME

102150Z 00000KT 9999 BKN021 M11/M13 Q1007 RWY 14 ICE 11-25 PCT FCT 0.60=

102030Z 1021/1106 VRB02KT CAVOK BECMG 1022/1024 20015KT BECMG 1101/1103 19020G30KT 1200 SN VV006 TEMPO 1103/1106 5000 -SN VV010=
Källa: Luftfartsverket (aro.lfv.se)